Terminal Aerodrome Forecast
Issued by NWS Newport/Morehead City, NC

Home | Current Version | Previous Version | Text Only | Print | Product List | Glossary On
Versions: 1 2 3 4 5 6 7 8 9 10 11 12 13
000
FTUS42 KMHX 241700
TAFEWN
TAF
KEWN 241733Z 2418/2518 VRB04KT P6SM FEW150
     FM250900 00000KT P6SM BKN025
     FM251400 17012G18KT P6SM VCSH BKN020=

USA.gov is the U.S. government's official web portal to all federal, state and local government web resources and services.